sensor_id;sensor_type;location;lat;lon;timestamp;P1;durP1;ratioP1;P2;durP2;ratioP2
9160;SDS011;4615;51.340;8.288;2023-09-08T00:02:00;5.63;;;4.85;;
9160;SDS011;4615;51.340;8.288;2023-09-08T00:04:26;5.88;;;4.97;;
9160;SDS011;4615;51.340;8.288;2023-09-08T00:06:52;4.82;;;4.43;;
9160;SDS011;4615;51.340;8.288;2023-09-08T00:09:19;4.97;;;4.57;;
9160;SDS011;4615;51.340;8.288;2023-09-08T00:11:45;5.03;;;4.53;;
9160;SDS011;4615;51.340;8.288;2023-09-08T00:14:13;5.20;;;4.70;;
9160;SDS011;4615;51.340;8.288;2023-09-08T00:16:39;5.43;;;4.87;;
9160;SDS011;4615;51.340;8.288;2023-09-08T00:19:07;5.32;;;4.82;;
9160;SDS011;4615;51.340;8.288;2023-09-08T00:21:34;5.57;;;4.90;;
9160;SDS011;4615;51.340;8.288;2023-09-08T00:24:00;5.15;;;4.75;;
9160;SDS011;4615;51.340;8.288;2023-09-08T00:26:27;7.10;;;6.30;;
9160;SDS011;4615;51.340;8.288;2023-09-08T00:28:53;9.13;;;7.63;;
9160;SDS011;4615;51.340;8.288;2023-09-08T00:31:21;13.75;;;8.95;;
9160;SDS011;4615;51.340;8.288;2023-09-08T00:33:47;12.32;;;8.98;;
9160;SDS011;4615;51.340;8.288;2023-09-08T00:36:13;10.50;;;8.40;;
9160;SDS011;4615;51.340;8.288;2023-09-08T00:38:40;9.93;;;7.13;;
9160;SDS011;4615;51.340;8.288;2023-09-08T00:41:06;9.13;;;6.72;;
9160;SDS011;4615;51.340;8.288;2023-09-08T00:43:33;7.80;;;6.10;;
9160;SDS011;4615;51.340;8.288;2023-09-08T00:45:59;7.50;;;6.30;;
9160;SDS011;4615;51.340;8.288;2023-09-08T00:48:29;10.07;;;7.03;;
9160;SDS011;4615;51.340;8.288;2023-09-08T00:50:55;10.63;;;8.20;;
9160;SDS011;4615;51.340;8.288;2023-09-08T00:53:21;9.43;;;7.90;;
9160;SDS011;4615;51.340;8.288;2023-09-08T00:55:48;11.65;;;8.43;;
9160;SDS011;4615;51.340;8.288;2023-09-08T00:58:15;8.73;;;7.82;;
9160;SDS011;4615;51.340;8.288;2023-09-08T01:00:41;10.55;;;7.70;;
9160;SDS011;4615;51.340;8.288;2023-09-08T01:03:08;10.00;;;7.85;;
9160;SDS011;4615;51.340;8.288;2023-09-08T01:05:35;9.00;;;7.75;;
9160;SDS011;4615;51.340;8.288;2023-09-08T01:08:02;9.97;;;7.50;;
9160;SDS011;4615;51.340;8.288;2023-09-08T01:10:29;8.15;;;6.55;;
9160;SDS011;4615;51.340;8.288;2023-09-08T01:12:55;6.63;;;5.80;;
9160;SDS011;4615;51.340;8.288;2023-09-08T01:15:22;7.07;;;5.20;;
9160;SDS011;4615;51.340;8.288;2023-09-08T01:17:48;6.85;;;5.70;;
9160;SDS011;4615;51.340;8.288;2023-09-08T01:20:15;6.18;;;5.57;;
9160;SDS011;4615;51.340;8.288;2023-09-08T01:23:00;7.95;;;6.75;;
9160;SDS011;4615;51.340;8.288;2023-09-08T01:25:29;7.93;;;5.95;;
9160;SDS011;4615;51.340;8.288;2023-09-08T01:27:58;7.25;;;6.18;;
9160;SDS011;4615;51.340;8.288;2023-09-08T01:30:26;6.15;;;5.47;;
9160;SDS011;4615;51.340;8.288;2023-09-08T01:32:54;6.28;;;5.68;;
9160;SDS011;4615;51.340;8.288;2023-09-08T01:35:20;7.70;;;6.03;;
9160;SDS011;4615;51.340;8.288;2023-09-08T01:37:47;6.63;;;5.53;;
9160;SDS011;4615;51.340;8.288;2023-09-08T01:40:14;7.80;;;5.40;;
9160;SDS011;4615;51.340;8.288;2023-09-08T01:42:42;5.95;;;5.30;;
9160;SDS011;4615;51.340;8.288;2023-09-08T01:45:08;6.47;;;5.32;;
9160;SDS011;4615;51.340;8.288;2023-09-08T01:47:35;6.10;;;5.30;;
9160;SDS011;4615;51.340;8.288;2023-09-08T01:50:01;5.25;;;4.80;;
9160;SDS011;4615;51.340;8.288;2023-09-08T01:52:27;5.60;;;5.10;;
9160;SDS011;4615;51.340;8.288;2023-09-08T01:54:54;5.90;;;5.40;;
9160;SDS011;4615;51.340;8.288;2023-09-08T01:57:20;5.05;;;4.57;;
9160;SDS011;4615;51.340;8.288;2023-09-08T01:59:48;5.25;;;4.75;;
9160;SDS011;4615;51.340;8.288;2023-09-08T02:02:14;6.47;;;4.60;;
9160;SDS011;4615;51.340;8.288;2023-09-08T02:04:41;5.13;;;4.65;;
9160;SDS011;4615;51.340;8.288;2023-09-08T02:07:07;7.53;;;5.20;;
9160;SDS011;4615;51.340;8.288;2023-09-08T02:09:34;6.35;;;5.50;;
9160;SDS011;4615;51.340;8.288;2023-09-08T02:12:00;6.22;;;5.50;;
9160;SDS011;4615;51.340;8.288;2023-09-08T02:14:27;5.95;;;5.45;;
9160;SDS011;4615;51.340;8.288;2023-09-08T02:16:55;6.68;;;5.95;;
9160;SDS011;4615;51.340;8.288;2023-09-08T02:19:21;7.82;;;5.70;;
9160;SDS011;4615;51.340;8.288;2023-09-08T02:21:48;6.37;;;5.77;;
9160;SDS011;4615;51.340;8.288;2023-09-08T02:24:14;7.03;;;6.00;;
9160;SDS011;4615;51.340;8.288;2023-09-08T02:26:41;6.63;;;5.57;;
9160;SDS011;4615;51.340;8.288;2023-09-08T02:29:07;5.75;;;5.25;;
9160;SDS011;4615;51.340;8.288;2023-09-08T02:31:33;6.38;;;5.82;;
9160;SDS011;4615;51.340;8.288;2023-09-08T02:34:01;5.80;;;5.30;;
9160;SDS011;4615;51.340;8.288;2023-09-08T02:36:28;6.22;;;5.63;;
9160;SDS011;4615;51.340;8.288;2023-09-08T02:38:54;7.28;;;6.30;;
9160;SDS011;4615;51.340;8.288;2023-09-08T02:41:21;6.18;;;5.57;;
9160;SDS011;4615;51.340;8.288;2023-09-08T02:43:48;6.95;;;6.35;;
9160;SDS011;4615;51.340;8.288;2023-09-08T02:46:15;6.30;;;5.70;;
9160;SDS011;4615;51.340;8.288;2023-09-08T02:48:41;5.50;;;5.00;;
9160;SDS011;4615;51.340;8.288;2023-09-08T02:51:09;6.10;;;5.50;;
9160;SDS011;4615;51.340;8.288;2023-09-08T02:53:37;6.80;;;5.50;;
9160;SDS011;4615;51.340;8.288;2023-09-08T02:56:03;6.57;;;5.70;;
9160;SDS011;4615;51.340;8.288;2023-09-08T02:58:30;6.33;;;5.80;;
9160;SDS011;4615;51.340;8.288;2023-09-08T03:01:03;6.88;;;6.18;;
9160;SDS011;4615;51.340;8.288;2023-09-08T03:03:34;6.55;;;5.95;;
9160;SDS011;4615;51.340;8.288;2023-09-08T03:06:02;6.60;;;6.00;;
9160;SDS011;4615;51.340;8.288;2023-09-08T03:08:30;9.98;;;9.07;;
9160;SDS011;4615;51.340;8.288;2023-09-08T03:10:56;9.70;;;8.82;;
9160;SDS011;4615;51.340;8.288;2023-09-08T03:13:23;7.32;;;6.72;;
9160;SDS011;4615;51.340;8.288;2023-09-08T03:15:51;5.80;;;5.30;;
9160;SDS011;4615;51.340;8.288;2023-09-08T03:18:17;5.90;;;5.35;;
9160;SDS011;4615;51.340;8.288;2023-09-08T03:20:47;6.27;;;5.67;;
9160;SDS011;4615;51.340;8.288;2023-09-08T03:23:13;6.18;;;5.68;;
9160;SDS011;4615;51.340;8.288;2023-09-08T03:25:41;6.10;;;5.50;;
9160;SDS011;4615;51.340;8.288;2023-09-08T03:28:07;5.90;;;5.35;;
9160;SDS011;4615;51.340;8.288;2023-09-08T03:30:34;5.72;;;5.22;;
9160;SDS011;4615;51.340;8.288;2023-09-08T03:33:00;6.32;;;5.70;;
9160;SDS011;4615;51.340;8.288;2023-09-08T03:35:27;5.95;;;5.35;;
9160;SDS011;4615;51.340;8.288;2023-09-08T03:37:53;5.45;;;5.00;;
9160;SDS011;4615;51.340;8.288;2023-09-08T03:40:19;5.55;;;5.15;;
9160;SDS011;4615;51.340;8.288;2023-09-08T03:42:47;5.65;;;5.15;;
9160;SDS011;4615;51.340;8.288;2023-09-08T03:45:13;5.90;;;5.40;;
9160;SDS011;4615;51.340;8.288;2023-09-08T03:47:40;6.38;;;5.78;;
9160;SDS011;4615;51.340;8.288;2023-09-08T03:50:08;5.93;;;5.43;;
9160;SDS011;4615;51.340;8.288;2023-09-08T03:52:34;6.00;;;5.40;;
9160;SDS011;4615;51.340;8.288;2023-09-08T03:55:01;6.43;;;5.50;;
9160;SDS011;4615;51.340;8.288;2023-09-08T03:57:27;6.57;;;5.93;;
9160;SDS011;4615;51.340;8.288;2023-09-08T03:59:55;6.95;;;6.30;;
9160;SDS011;4615;51.340;8.288;2023-09-08T04:02:21;6.35;;;5.85;;
9160;SDS011;4615;51.340;8.288;2023-09-08T04:04:47;5.97;;;5.35;;
9160;SDS011;4615;51.340;8.288;2023-09-08T04:07:14;5.72;;;5.22;;
9160;SDS011;4615;51.340;8.288;2023-09-08T04:09:40;6.95;;;5.55;;
9160;SDS011;4615;51.340;8.288;2023-09-08T04:12:07;6.00;;;5.07;;
9160;SDS011;4615;51.340;8.288;2023-09-08T04:14:36;5.57;;;5.07;;
9160;SDS011;4615;51.340;8.288;2023-09-08T04:17:03;6.32;;;4.82;;
9160;SDS011;4615;51.340;8.288;2023-09-08T04:19:30;5.93;;;5.35;;
9160;SDS011;4615;51.340;8.288;2023-09-08T04:21:56;8.13;;;5.40;;
9160;SDS011;4615;51.340;8.288;2023-09-08T04:24:22;6.30;;;5.70;;
9160;SDS011;4615;51.340;8.288;2023-09-08T04:26:49;6.20;;;5.70;;
9160;SDS011;4615;51.340;8.288;2023-09-08T04:29:15;7.15;;;5.60;;
9160;SDS011;4615;51.340;8.288;2023-09-08T04:31:42;6.47;;;5.90;;
9160;SDS011;4615;51.340;8.288;2023-09-08T04:34:09;6.88;;;6.18;;
9160;SDS011;4615;51.340;8.288;2023-09-08T04:36:36;6.65;;;5.97;;
9160;SDS011;4615;51.340;8.288;2023-09-08T04:39:03;6.43;;;5.82;;
9160;SDS011;4615;51.340;8.288;2023-09-08T04:41:29;6.30;;;5.70;;
9160;SDS011;4615;51.340;8.288;2023-09-08T04:43:55;6.55;;;5.80;;
9160;SDS011;4615;51.340;8.288;2023-09-08T04:46:23;6.50;;;5.82;;
9160;SDS011;4615;51.340;8.288;2023-09-08T04:48:49;6.40;;;5.90;;
9160;SDS011;4615;51.340;8.288;2023-09-08T04:51:17;6.40;;;5.75;;
9160;SDS011;4615;51.340;8.288;2023-09-08T04:53:43;7.05;;;6.38;;
9160;SDS011;4615;51.340;8.288;2023-09-08T04:56:09;7.17;;;6.57;;
9160;SDS011;4615;51.340;8.288;2023-09-08T04:58:36;6.80;;;6.25;;
9160;SDS011;4615;51.340;8.288;2023-09-08T05:01:04;5.90;;;5.40;;
9160;SDS011;4615;51.340;8.288;2023-09-08T05:03:30;6.38;;;5.70;;
9160;SDS011;4615;51.340;8.288;2023-09-08T05:05:57;6.47;;;5.60;;
9160;SDS011;4615;51.340;8.288;2023-09-08T05:08:25;5.82;;;5.22;;
9160;SDS011;4615;51.340;8.288;2023-09-08T05:10:51;7.60;;;5.55;;
9160;SDS011;4615;51.340;8.288;2023-09-08T05:13:17;6.50;;;5.20;;
9160;SDS011;4615;51.340;8.288;2023-09-08T05:15:44;6.78;;;5.70;;
9160;SDS011;4615;51.340;8.288;2023-09-08T05:18:13;6.50;;;5.95;;
9160;SDS011;4615;51.340;8.288;2023-09-08T05:20:40;8.05;;;6.10;;
9160;SDS011;4615;51.340;8.288;2023-09-08T05:23:06;7.05;;;6.43;;
9160;SDS011;4615;51.340;8.288;2023-09-08T05:25:34;9.15;;;8.23;;
9160;SDS011;4615;51.340;8.288;2023-09-08T05:28:00;9.13;;;7.95;;
9160;SDS011;4615;51.340;8.288;2023-09-08T05:30:27;8.18;;;7.38;;
9160;SDS011;4615;51.340;8.288;2023-09-08T05:32:53;6.55;;;5.95;;
9160;SDS011;4615;51.340;8.288;2023-09-08T05:35:20;7.13;;;6.43;;
9160;SDS011;4615;51.340;8.288;2023-09-08T05:37:46;8.10;;;7.13;;
9160;SDS011;4615;51.340;8.288;2023-09-08T05:40:12;8.23;;;7.27;;
9160;SDS011;4615;51.340;8.288;2023-09-08T05:42:40;9.07;;;7.25;;
9160;SDS011;4615;51.340;8.288;2023-09-08T05:45:07;7.25;;;6.55;;
9160;SDS011;4615;51.340;8.288;2023-09-08T05:47:33;7.90;;;7.10;;
9160;SDS011;4615;51.340;8.288;2023-09-08T05:50:01;7.22;;;6.53;;
9160;SDS011;4615;51.340;8.288;2023-09-08T05:52:27;7.22;;;6.53;;
9160;SDS011;4615;51.340;8.288;2023-09-08T05:54:54;7.57;;;6.38;;
9160;SDS011;4615;51.340;8.288;2023-09-08T05:57:20;7.20;;;6.30;;
9160;SDS011;4615;51.340;8.288;2023-09-08T05:59:48;6.28;;;5.68;;
9160;SDS011;4615;51.340;8.288;2023-09-08T06:02:14;6.90;;;6.07;;
9160;SDS011;4615;51.340;8.288;2023-09-08T06:04:40;5.93;;;5.38;;
9160;SDS011;4615;51.340;8.288;2023-09-08T06:07:07;6.50;;;5.90;;
9160;SDS011;4615;51.340;8.288;2023-09-08T06:09:33;6.03;;;5.43;;
9160;SDS011;4615;51.340;8.288;2023-09-08T06:11:59;5.82;;;5.22;;
9160;SDS011;4615;51.340;8.288;2023-09-08T06:14:26;6.33;;;5.27;;
9160;SDS011;4615;51.340;8.288;2023-09-08T06:16:53;6.13;;;5.40;;
9160;SDS011;4615;51.340;8.288;2023-09-08T06:19:20;5.68;;;5.18;;
9160;SDS011;4615;51.340;8.288;2023-09-08T06:21:47;6.20;;;5.68;;
9160;SDS011;4615;51.340;8.288;2023-09-08T06:24:13;6.00;;;5.50;;
9160;SDS011;4615;51.340;8.288;2023-09-08T06:26:39;6.47;;;5.70;;
9160;SDS011;4615;51.340;8.288;2023-09-08T06:29:07;6.13;;;5.53;;
9160;SDS011;4615;51.340;8.288;2023-09-08T06:31:34;6.03;;;5.53;;
9160;SDS011;4615;51.340;8.288;2023-09-08T06:34:01;6.22;;;5.63;;
9160;SDS011;4615;51.340;8.288;2023-09-08T06:36:28;5.68;;;5.18;;
9160;SDS011;4615;51.340;8.288;2023-09-08T06:38:54;6.00;;;5.40;;
9160;SDS011;4615;51.340;8.288;2023-09-08T06:41:20;6.97;;;5.70;;
9160;SDS011;4615;51.340;8.288;2023-09-08T06:43:48;6.32;;;5.60;;
9160;SDS011;4615;51.340;8.288;2023-09-08T06:46:14;6.18;;;5.57;;
9160;SDS011;4615;51.340;8.288;2023-09-08T06:48:40;6.35;;;5.75;;
9160;SDS011;4615;51.340;8.288;2023-09-08T06:51:08;6.60;;;5.93;;
9160;SDS011;4615;51.340;8.288;2023-09-08T06:53:35;5.90;;;5.25;;
9160;SDS011;4615;51.340;8.288;2023-09-08T06:56:02;6.15;;;5.65;;
9160;SDS011;4615;51.340;8.288;2023-09-08T06:58:28;5.80;;;5.20;;
9160;SDS011;4615;51.340;8.288;2023-09-08T07:00:54;5.65;;;5.15;;
9160;SDS011;4615;51.340;8.288;2023-09-08T07:03:21;5.50;;;5.00;;
9160;SDS011;4615;51.340;8.288;2023-09-08T07:05:49;5.47;;;4.97;;
9160;SDS011;4615;51.340;8.288;2023-09-08T07:08:16;5.68;;;5.18;;
9160;SDS011;4615;51.340;8.288;2023-09-08T07:10:44;5.57;;;5.07;;
9160;SDS011;4615;51.340;8.288;2023-09-08T07:13:10;5.75;;;4.93;;
9160;SDS011;4615;51.340;8.288;2023-09-08T07:15:36;6.85;;;5.43;;
9160;SDS011;4615;51.340;8.288;2023-09-08T07:18:03;5.50;;;5.00;;
9160;SDS011;4615;51.340;8.288;2023-09-08T07:20:29;6.00;;;5.47;;
9160;SDS011;4615;51.340;8.288;2023-09-08T07:22:56;5.57;;;5.07;;
9160;SDS011;4615;51.340;8.288;2023-09-08T07:25:23;6.10;;;5.30;;
9160;SDS011;4615;51.340;8.288;2023-09-08T07:27:50;5.87;;;5.37;;
9160;SDS011;4615;51.340;8.288;2023-09-08T07:30:18;5.85;;;5.35;;
9160;SDS011;4615;51.340;8.288;2023-09-08T07:32:44;6.07;;;5.47;;
9160;SDS011;4615;51.340;8.288;2023-09-08T07:35:11;6.35;;;5.75;;
9160;SDS011;4615;51.340;8.288;2023-09-08T07:37:39;5.88;;;5.30;;
9160;SDS011;4615;51.340;8.288;2023-09-08T07:40:06;5.55;;;5.05;;
9160;SDS011;4615;51.340;8.288;2023-09-08T07:42:35;7.63;;;5.50;;
9160;SDS011;4615;51.340;8.288;2023-09-08T07:45:01;5.95;;;5.38;;
9160;SDS011;4615;51.340;8.288;2023-09-08T07:47:27;6.68;;;5.47;;
9160;SDS011;4615;51.340;8.288;2023-09-08T07:50:15;5.90;;;5.20;;
9160;SDS011;4615;51.340;8.288;2023-09-08T07:52:40;5.93;;;5.43;;
9160;SDS011;4615;51.340;8.288;2023-09-08T07:55:07;5.70;;;5.20;;
9160;SDS011;4615;51.340;8.288;2023-09-08T07:57:34;6.10;;;5.50;;
9160;SDS011;4615;51.340;8.288;2023-09-08T08:00:01;5.35;;;4.85;;
9160;SDS011;4615;51.340;8.288;2023-09-08T08:02:27;6.45;;;5.00;;
9160;SDS011;4615;51.340;8.288;2023-09-08T08:04:55;6.03;;;5.20;;
9160;SDS011;4615;51.340;8.288;2023-09-08T08:07:22;5.45;;;4.97;;
9160;SDS011;4615;51.340;8.288;2023-09-08T08:09:48;6.10;;;5.50;;
9160;SDS011;4615;51.340;8.288;2023-09-08T08:12:14;5.35;;;4.85;;
9160;SDS011;4615;51.340;8.288;2023-09-08T08:14:42;5.37;;;4.83;;
9160;SDS011;4615;51.340;8.288;2023-09-08T08:17:09;6.60;;;4.57;;
9160;SDS011;4615;51.340;8.288;2023-09-08T08:19:36;4.93;;;4.20;;
9160;SDS011;4615;51.340;8.288;2023-09-08T08:22:02;4.70;;;4.30;;
9160;SDS011;4615;51.340;8.288;2023-09-08T08:24:29;5.32;;;4.20;;
9160;SDS011;4615;51.340;8.288;2023-09-08T08:26:55;6.43;;;4.95;;
9160;SDS011;4615;51.340;8.288;2023-09-08T08:29:22;7.20;;;4.80;;
9160;SDS011;4615;51.340;8.288;2023-09-08T08:31:49;5.20;;;4.80;;
9160;SDS011;4615;51.340;8.288;2023-09-08T08:34:16;5.57;;;4.90;;
9160;SDS011;4615;51.340;8.288;2023-09-08T08:36:42;6.13;;;4.68;;
9160;SDS011;4615;51.340;8.288;2023-09-08T08:39:08;5.00;;;4.38;;
9160;SDS011;4615;51.340;8.288;2023-09-08T08:41:35;4.83;;;4.33;;
9160;SDS011;4615;51.340;8.288;2023-09-08T08:44:05;5.15;;;4.32;;
9160;SDS011;4615;51.340;8.288;2023-09-08T08:46:31;4.70;;;4.20;;
9160;SDS011;4615;51.340;8.288;2023-09-08T08:49:00;4.97;;;4.47;;
9160;SDS011;4615;51.340;8.288;2023-09-08T08:51:27;4.90;;;4.30;;
9160;SDS011;4615;51.340;8.288;2023-09-08T08:53:54;4.90;;;4.50;;
9160;SDS011;4615;51.340;8.288;2023-09-08T08:56:21;8.20;;;4.70;;
9160;SDS011;4615;51.340;8.288;2023-09-08T08:58:48;6.20;;;5.10;;
9160;SDS011;4615;51.340;8.288;2023-09-08T09:01:15;5.28;;;4.53;;
9160;SDS011;4615;51.340;8.288;2023-09-08T09:03:42;4.93;;;4.43;;
9160;SDS011;4615;51.340;8.288;2023-09-08T09:06:11;5.13;;;4.50;;
9160;SDS011;4615;51.340;8.288;2023-09-08T09:08:37;5.03;;;4.53;;
9160;SDS011;4615;51.340;8.288;2023-09-08T09:11:04;6.03;;;4.30;;
9160;SDS011;4615;51.340;8.288;2023-09-08T09:13:31;5.20;;;4.40;;
9160;SDS011;4615;51.340;8.288;2023-09-08T09:15:58;9.13;;;4.25;;
9160;SDS011;4615;51.340;8.288;2023-09-08T09:18:25;4.70;;;4.30;;
9160;SDS011;4615;51.340;8.288;2023-09-08T09:20:55;4.82;;;4.32;;
9160;SDS011;4615;51.340;8.288;2023-09-08T09:23:27;5.50;;;4.75;;
9160;SDS011;4615;51.340;8.288;2023-09-08T09:25:55;4.78;;;4.32;;
9160;SDS011;4615;51.340;8.288;2023-09-08T09:28:21;4.90;;;4.50;;
9160;SDS011;4615;51.340;8.288;2023-09-08T09:30:48;4.80;;;4.40;;
9160;SDS011;4615;51.340;8.288;2023-09-08T09:33:16;6.30;;;4.70;;
9160;SDS011;4615;51.340;8.288;2023-09-08T09:35:43;6.13;;;4.50;;
9160;SDS011;4615;51.340;8.288;2023-09-08T09:38:10;5.82;;;4.40;;
9160;SDS011;4615;51.340;8.288;2023-09-08T09:40:38;6.05;;;4.22;;
9160;SDS011;4615;51.340;8.288;2023-09-08T09:43:05;4.90;;;4.00;;
9160;SDS011;4615;51.340;8.288;2023-09-08T09:45:32;4.80;;;4.20;;
9160;SDS011;4615;51.340;8.288;2023-09-08T09:47:59;4.73;;;4.13;;
9160;SDS011;4615;51.340;8.288;2023-09-08T09:50:28;5.28;;;3.97;;
9160;SDS011;4615;51.340;8.288;2023-09-08T09:52:56;5.32;;;4.20;;
9160;SDS011;4615;51.340;8.288;2023-09-08T09:55:23;5.43;;;4.30;;
9160;SDS011;4615;51.340;8.288;2023-09-08T09:57:51;4.57;;;4.10;;
9160;SDS011;4615;51.340;8.288;2023-09-08T10:00:19;4.30;;;3.90;;
9160;SDS011;4615;51.340;8.288;2023-09-08T10:02:46;5.78;;;4.07;;
9160;SDS011;4615;51.340;8.288;2023-09-08T10:05:12;4.47;;;4.07;;
9160;SDS011;4615;51.340;8.288;2023-09-08T10:07:39;5.03;;;4.30;;
9160;SDS011;4615;51.340;8.288;2023-09-08T10:10:06;5.32;;;4.10;;
9160;SDS011;4615;51.340;8.288;2023-09-08T10:12:32;5.65;;;3.90;;
9160;SDS011;4615;51.340;8.288;2023-09-08T10:15:03;5.20;;;4.00;;
9160;SDS011;4615;51.340;8.288;2023-09-08T10:17:31;4.55;;;3.80;;
9160;SDS011;4615;51.340;8.288;2023-09-08T10:20:00;4.40;;;4.00;;
9160;SDS011;4615;51.340;8.288;2023-09-08T10:22:33;4.80;;;3.95;;
9160;SDS011;4615;51.340;8.288;2023-09-08T10:25:01;6.05;;;4.10;;
9160;SDS011;4615;51.340;8.288;2023-09-08T10:27:30;4.82;;;3.90;;
9160;SDS011;4615;51.340;8.288;2023-09-08T10:29:57;4.25;;;3.88;;
9160;SDS011;4615;51.340;8.288;2023-09-08T10:32:27;5.38;;;3.90;;
9160;SDS011;4615;51.340;8.288;2023-09-08T10:34:54;4.35;;;3.90;;
9160;SDS011;4615;51.340;8.288;2023-09-08T10:37:23;4.30;;;3.90;;
9160;SDS011;4615;51.340;8.288;2023-09-08T10:39:50;4.53;;;4.13;;
9160;SDS011;4615;51.340;8.288;2023-09-08T10:42:20;4.47;;;3.88;;
9160;SDS011;4615;51.340;8.288;2023-09-08T10:44:55;4.55;;;4.05;;
9160;SDS011;4615;51.340;8.288;2023-09-08T10:47:22;4.30;;;3.90;;
9160;SDS011;4615;51.340;8.288;2023-09-08T10:49:50;4.70;;;3.85;;
9160;SDS011;4615;51.340;8.288;2023-09-08T10:52:20;4.20;;;3.80;;
9160;SDS011;4615;51.340;8.288;2023-09-08T10:54:48;4.03;;;3.70;;
9160;SDS011;4615;51.340;8.288;2023-09-08T10:57:15;3.97;;;3.50;;
9160;SDS011;4615;51.340;8.288;2023-09-08T10:59:44;5.13;;;3.80;;
9160;SDS011;4615;51.340;8.288;2023-09-08T11:02:20;4.13;;;3.53;;
9160;SDS011;4615;51.340;8.288;2023-09-08T11:04:59;4.00;;;3.47;;
9160;SDS011;4615;51.340;8.288;2023-09-08T11:07:26;3.97;;;3.60;;
9160;SDS011;4615;51.340;8.288;2023-09-08T11:09:52;3.90;;;3.42;;
9160;SDS011;4615;51.340;8.288;2023-09-08T11:12:19;3.63;;;3.28;;
9160;SDS011;4615;51.340;8.288;2023-09-08T11:14:48;5.00;;;3.50;;
9160;SDS011;4615;51.340;8.288;2023-09-08T11:17:14;4.00;;;3.60;;
9160;SDS011;4615;51.340;8.288;2023-09-08T11:19:45;3.72;;;3.20;;
9160;SDS011;4615;51.340;8.288;2023-09-08T11:22:12;4.40;;;3.60;;
9160;SDS011;4615;51.340;8.288;2023-09-08T11:24:41;4.07;;;3.55;;
9160;SDS011;4615;51.340;8.288;2023-09-08T11:27:07;3.72;;;3.42;;
9160;SDS011;4615;51.340;8.288;2023-09-08T11:29:33;3.58;;;3.28;;
9160;SDS011;4615;51.340;8.288;2023-09-08T11:32:00;4.13;;;3.15;;
9160;SDS011;4615;51.340;8.288;2023-09-08T11:34:28;3.67;;;3.38;;
9160;SDS011;4615;51.340;8.288;2023-09-08T11:36:54;5.60;;;3.25;;
9160;SDS011;4615;51.340;8.288;2023-09-08T11:39:24;3.80;;;3.50;;
9160;SDS011;4615;51.340;8.288;2023-09-08T11:41:51;3.70;;;3.40;;
9160;SDS011;4615;51.340;8.288;2023-09-08T11:44:17;3.63;;;3.33;;
9160;SDS011;4615;51.340;8.288;2023-09-08T11:46:45;4.35;;;3.13;;
9160;SDS011;4615;51.340;8.288;2023-09-08T11:49:13;3.92;;;3.22;;
9160;SDS011;4615;51.340;8.288;2023-09-08T11:51:39;3.70;;;3.30;;
9160;SDS011;4615;51.340;8.288;2023-09-08T11:54:06;3.50;;;3.20;;
9160;SDS011;4615;51.340;8.288;2023-09-08T11:56:33;3.80;;;3.40;;
9160;SDS011;4615;51.340;8.288;2023-09-08T11:59:00;4.00;;;3.40;;
9160;SDS011;4615;51.340;8.288;2023-09-08T12:01:27;3.77;;;3.47;;
9160;SDS011;4615;51.340;8.288;2023-09-08T12:03:54;4.03;;;3.60;;
9160;SDS011;4615;51.340;8.288;2023-09-08T12:06:23;3.42;;;3.20;;
9160;SDS011;4615;51.340;8.288;2023-09-08T12:08:49;3.72;;;3.42;;
9160;SDS011;4615;51.340;8.288;2023-09-08T12:11:16;4.10;;;3.50;;
9160;SDS011;4615;51.340;8.288;2023-09-08T12:13:43;3.90;;;3.60;;
9160;SDS011;4615;51.340;8.288;2023-09-08T12:16:19;4.38;;;3.30;;
9160;SDS011;4615;51.340;8.288;2023-09-08T12:18:48;3.53;;;3.17;;
9160;SDS011;4615;51.340;8.288;2023-09-08T12:21:14;5.00;;;3.40;;
9160;SDS011;4615;51.340;8.288;2023-09-08T12:23:47;3.83;;;3.30;;
9160;SDS011;4615;51.340;8.288;2023-09-08T12:26:14;3.40;;;3.10;;
9160;SDS011;4615;51.340;8.288;2023-09-08T12:28:41;4.43;;;3.30;;
9160;SDS011;4615;51.340;8.288;2023-09-08T12:31:09;3.90;;;3.47;;
9160;SDS011;4615;51.340;8.288;2023-09-08T12:33:36;4.18;;;3.20;;
9160;SDS011;4615;51.340;8.288;2023-09-08T12:36:09;4.03;;;3.63;;
9160;SDS011;4615;51.340;8.288;2023-09-08T12:38:36;3.47;;;3.17;;
9160;SDS011;4615;51.340;8.288;2023-09-08T12:41:02;4.05;;;3.40;;
9160;SDS011;4615;51.340;8.288;2023-09-08T12:43:29;3.80;;;3.50;;
9160;SDS011;4615;51.340;8.288;2023-09-08T12:45:55;3.50;;;3.07;;
9160;SDS011;4615;51.340;8.288;2023-09-08T12:48:23;3.72;;;3.17;;
9160;SDS011;4615;51.340;8.288;2023-09-08T12:50:50;3.67;;;3.38;;
9160;SDS011;4615;51.340;8.288;2023-09-08T12:53:16;3.55;;;3.10;;
9160;SDS011;4615;51.340;8.288;2023-09-08T12:55:43;3.90;;;3.47;;
9160;SDS011;4615;51.340;8.288;2023-09-08T12:58:09;3.58;;;3.05;;
9160;SDS011;4615;51.340;8.288;2023-09-08T13:00:35;3.30;;;3.07;;
9160;SDS011;4615;51.340;8.288;2023-09-08T13:03:02;3.40;;;3.10;;
9160;SDS011;4615;51.340;8.288;2023-09-08T13:05:30;3.80;;;3.10;;
9160;SDS011;4615;51.340;8.288;2023-09-08T13:07:57;3.53;;;3.22;;
9160;SDS011;4615;51.340;8.288;2023-09-08T13:10:23;3.47;;;3.10;;
9160;SDS011;4615;51.340;8.288;2023-09-08T13:12:50;4.40;;;3.30;;
9160;SDS011;4615;51.340;8.288;2023-09-08T13:15:16;4.22;;;3.22;;
9160;SDS011;4615;51.340;8.288;2023-09-08T13:17:43;3.70;;;3.40;;
9160;SDS011;4615;51.340;8.288;2023-09-08T13:20:10;5.63;;;3.55;;
9160;SDS011;4615;51.340;8.288;2023-09-08T13:22:38;4.13;;;3.30;;
9160;SDS011;4615;51.340;8.288;2023-09-08T13:25:05;3.40;;;3.10;;
9160;SDS011;4615;51.340;8.288;2023-09-08T13:27:31;3.55;;;3.25;;
9160;SDS011;4615;51.340;8.288;2023-09-08T13:30:07;3.92;;;3.20;;
9160;SDS011;4615;51.340;8.288;2023-09-08T13:32:33;3.87;;;3.40;;
9160;SDS011;4615;51.340;8.288;2023-09-08T13:35:00;3.28;;;3.03;;
9160;SDS011;4615;51.340;8.288;2023-09-08T13:37:27;3.58;;;3.28;;
9160;SDS011;4615;51.340;8.288;2023-09-08T13:39:57;3.77;;;3.10;;
9160;SDS011;4615;51.340;8.288;2023-09-08T13:42:23;3.42;;;3.13;;
9160;SDS011;4615;51.340;8.288;2023-09-08T13:44:49;3.55;;;3.22;;
9160;SDS011;4615;51.340;8.288;2023-09-08T13:47:16;4.43;;;3.35;;
9160;SDS011;4615;51.340;8.288;2023-09-08T13:49:42;3.80;;;3.03;;
9160;SDS011;4615;51.340;8.288;2023-09-08T13:52:08;3.90;;;3.37;;
9160;SDS011;4615;51.340;8.288;2023-09-08T13:54:35;4.45;;;3.38;;
9160;SDS011;4615;51.340;8.288;2023-09-08T13:57:03;3.70;;;3.13;;
9160;SDS011;4615;51.340;8.288;2023-09-08T13:59:29;3.67;;;3.03;;
9160;SDS011;4615;51.340;8.288;2023-09-08T14:01:56;3.92;;;3.50;;
9160;SDS011;4615;51.340;8.288;2023-09-08T14:04:24;3.73;;;3.37;;
9160;SDS011;4615;51.340;8.288;2023-09-08T14:06:50;4.75;;;3.33;;
9160;SDS011;4615;51.340;8.288;2023-09-08T14:09:16;3.80;;;3.28;;
9160;SDS011;4615;51.340;8.288;2023-09-08T14:11:43;3.58;;;3.28;;
9160;SDS011;4615;51.340;8.288;2023-09-08T14:14:10;3.50;;;3.20;;
9160;SDS011;4615;51.340;8.288;2023-09-08T14:16:37;3.63;;;3.20;;
9160;SDS011;4615;51.340;8.288;2023-09-08T14:19:03;3.75;;;3.00;;
9160;SDS011;4615;51.340;8.288;2023-09-08T14:21:30;3.60;;;3.30;;
9160;SDS011;4615;51.340;8.288;2023-09-08T14:23:57;4.93;;;3.30;;
9160;SDS011;4615;51.340;8.288;2023-09-08T14:26:23;5.05;;;3.58;;
9160;SDS011;4615;51.340;8.288;2023-09-08T14:28:50;3.50;;;3.20;;
9160;SDS011;4615;51.340;8.288;2023-09-08T14:31:19;3.75;;;3.45;;
9160;SDS011;4615;51.340;8.288;2023-09-08T14:33:45;3.83;;;3.35;;
9160;SDS011;4615;51.340;8.288;2023-09-08T14:36:16;3.50;;;3.20;;
9160;SDS011;4615;51.340;8.288;2023-09-08T14:38:42;3.60;;;3.15;;
9160;SDS011;4615;51.340;8.288;2023-09-08T14:41:08;3.88;;;3.58;;
9160;SDS011;4615;51.340;8.288;2023-09-08T14:43:35;4.72;;;3.47;;
9160;SDS011;4615;51.340;8.288;2023-09-08T14:46:01;4.60;;;3.58;;
9160;SDS011;4615;51.340;8.288;2023-09-08T14:48:29;3.67;;;3.38;;
9160;SDS011;4615;51.340;8.288;2023-09-08T14:50:56;3.53;;;3.22;;
9160;SDS011;4615;51.340;8.288;2023-09-08T14:53:23;4.72;;;3.50;;
9160;SDS011;4615;51.340;8.288;2023-09-08T14:55:49;3.90;;;3.60;;
9160;SDS011;4615;51.340;8.288;2023-09-08T14:58:19;3.80;;;3.37;;
9160;SDS011;4615;51.340;8.288;2023-09-08T15:00:45;4.40;;;3.53;;
9160;SDS011;4615;51.340;8.288;2023-09-08T15:03:11;3.90;;;3.50;;
9160;SDS011;4615;51.340;8.288;2023-09-08T15:05:39;3.92;;;3.35;;
9160;SDS011;4615;51.340;8.288;2023-09-08T15:08:06;4.55;;;3.70;;
9160;SDS011;4615;51.340;8.288;2023-09-08T15:10:32;4.65;;;3.78;;
9160;SDS011;4615;51.340;8.288;2023-09-08T15:12:58;3.80;;;3.50;;
9160;SDS011;4615;51.340;8.288;2023-09-08T15:15:25;4.55;;;3.40;;